International TAF

Brunei, China, Hong Kong, Malaysia, Philippines, Taiwan

The availability of aerodrome forecasts from overseas locations is dependent on the regular international exchange of data. Some locations may at times be absent. If this problem persists, please advise webav@bom.gov.au

 back to top

ZSPD 23/05/2022 UTC

TAF ZSPD 232104Z 2400/2424 14004MPS 6000 BKN015 TX22/2406Z
TN18/2421Z

WIDD 23/05/2022 UTC

TAF WIDD 232300Z 2400/2424 12007KT 9999 SCT014
PROB30 TEMPO 2403/2406 5000 -TSRA FEW013CB

WAMM 23/05/2022 UTC

TAF WAMM 232300Z 2400/2506 32008KT 9999 SCT020
TEMPO 2400/2404 6000 RA
PROB40 TEMPO 2405/2409 3000 TSRA FEW017CB
BECMG 2410/2312 VRB03KT

WBSB 23/05/2022 UTC

TAF WBSB 232250Z 2400/2506 16003KT 9999 FEW014 FEW015CB
BECMG 2402/2404 02008KT FEW016

WBKK 23/05/2022 UTC

TAF WBKK 232300Z 2400/2500 30005KT 9999 FEW014
BECMG 2410/2412 11006KT

WBGG 23/05/2022 UTC

TAF WBGG 232300Z 2400/2500 13005KT 9999 SCT020

VHHH 23/05/2022 UTC

TAF VHHH 232300Z 2400/2506 10010KT 8000 FEW010 SCT020 TX27/2406Z
TX28/2506Z TN25/2422Z TEMPO 2421/2503 4000 SHRA

VMMC 23/05/2022 UTC

TAF VMMC 232300Z 2400/2506 08012KT 9999 FEW008 SCT020
TEMPO 2408/2414 4000 SHRA

ZGSZ 23/05/2022 UTC

TAF ZGSZ 232106Z 2400/2424 11004MPS 6000 BKN040 TX29/2406Z
TN25/2422Z TEMPO 2406/2412 SHRA SCT015 FEW020CB BKN033 TEMPO
2420/2424
SHRA FEW015CB BKN033

RCTP 23/05/2022 UTC

TAF RCTP 232300Z 2400/2506 03005KT 9999 SCT005 BKN011
TEMPO 2400/2406 04010KT SCT003 BKN007
TEMPO 2406/2412 5000 RA SCT003 BKN006
TEMPO 2412/2418 04010KT FEW010 BKN020
TEMPO 2418/2424 4000 RA BR SCT002 BKN005
TEMPO 2500/2506 3500 RA BR SCT002 BKN004

RCKH 23/05/2022 UTC

TAF RCKH 232300Z 2400/2506 18005KT 9999 FEW015 BKN032
TEMPO 2402/2406 18010KT 5000 RA FEW010 BKN017
TEMPO 2408/2412 24007KT 5000 RA FEW010 BKN017
TEMPO 2418/2424 09005KT FEW007 BKN015
TEMPO 2503/2506 27010KT

ZGGG 23/05/2022 UTC

TAF ZGGG 232103Z 2400/2424 08003MPS 8000 FEW011 OVC026 TX28/2407Z
TN24/2422Z TEMPO 2406/2412 3500 SHRA SCT011 FEW020CB BKN026

ZBAA 23/05/2022 UTC

TAF ZBAA 232110Z 2400/2424 18004MPS CAVOK TX35/2407Z TN19/2421Z
TEMPO 2409/2414 -TSRA FEW033CB BKN040 BECMG 2415/2416 36006MPS

ZSSS 23/05/2022 UTC

TAF ZSSS 232104Z 2400/2424 14004MPS 6000 BKN015 TX23/2406Z
TN19/2421Z

ZBTJ 23/05/2022 UTC

TAF ZBTJ 232113Z 2400/2424 22004MPS CAVOK TX34/2407Z TN18/2421Z
TEMPO 2414/2418 -TSRA FEW040CB BKN040 BECMG 2419/2420 03006MPS

ZBYN 23/05/2022 UTC

TAF ZBYN 232101Z 2400/2424 06004MPS 5000 HZ NSC TX31/2407Z
TN14/2421Z

ZSHC 23/05/2022 UTC

TAF ZSHC 232105Z 2400/2424 10003MPS 3000 BR BKN020 TX25/2406Z
TN18/2421Z

ZSOF 24/05/2022 UTC

TAF ZSOF 232101Z 2400/2424 12003MPS 5000 HZ NSC TX31/2406Z
TN18/2421Z

ZWWW 23/05/2022 UTC

TAF ZWWW 232105Z 2400/2424 18004MPS CAVOK TX32/2409Z TN20/2423Z
BECMG 2402/2403 36004MPS BECMG 2413/2414 18004MPS

ZYTL 23/05/2022 UTC

TAF ZYTL 232107Z 2400/2424 21004MPS 5000 BR FEW033 TX28/2406Z
TN15/2422Z BECMG 2417/2418 32005G11MPS TEMPO 2418/2424 2000 -TSRA BR
SCT006 BKN010 OVC030 FEW033CB

RPLL 23/05/2022 UTC

TAF RPLL 232300Z 2400/2506 12006KT 9999 FEW025 SCT100
TX34/2405Z TN27/2421Z
TEMPO 2400/2404 VRB06KT
BECMG 2405/2407 24007KT FEW023 BKN090
TEMPO 2407/2413 25012KT -SHRA FEW022CB SCT023 BKN090

RPVM 23/05/2022 UTC

TAF RPVM 232300Z 2400/2506 13004KT 9999 FEW020 BKN300
TEMPO 2400/2406 07007KT -SHRA FEW018CB BKN300
TEMPO 2406/2412 FEW018CB BKN300

RPMZ 23/05/2022 UTC

TAF RPMZ 232300Z 2400/2424 08005KT 9999 FEW017 SCT090 BKN300
TEMPO 2400/2406 FEW016CB BKN090

Australian International

The availability of aerodrome forecasts from overseas locations is dependent on the regular international exchange of data. Some locations may at times be absent. If this problem persists, please advise webav@bom.gov.au

 back to top

YMML 24/05/2022 UTC

TAF YMML 240202Z 2403/2506
01010KT CAVOK
FM240400 07007KT CAVOK
FM240900 01008KT CAVOK
FM250100 02014KT CAVOK
RMK
T 18 17 11 09 Q 1026 1024 1025 1025
TAF3

YSSY 24/05/2022 UTC

TAF YSSY 240205Z 2403/2506
10010KT 9999 -SHRA FEW020 SCT035
FM241400 30006KT 9999 -SHRA SCT020 BKN035
FM250200 15005KT 9999 -SHRA SCT025 BKN040
INTER 2414/2503 3000 SHRA BKN012
RMK
T 18 18 16 15 Q 1026 1026 1026 1026
TAF3

YBBN 24/05/2022 UTC

TAF YBBN 240222Z 2403/2506
12012KT 9999 -SHRA SCT025
FM240800 21007KT 9999 -SHRA FEW012 SCT025
INTER 2403/2410 3000 SHRA BKN012
INTER 2502/2506 3000 SHRA BKN012
RMK
T 21 20 18 17 Q 1020 1020 1021 1022
TAF3

YSCB 24/05/2022 UTC

TAF YSCB 240236Z 2403/2500
11010KT CAVOK
FM241000 VRB03KT 9999 SCT020
PROB30 2415/2423 0800 FG BKN001
RMK
T 16 15 10 08 Q 1027 1026 1027 1028
TAF3

YBCS 24/05/2022 UTC

TAF YBCS 240204Z 2403/2500
14012KT 9999 SCT030
FM240900 17007KT 9999 SCT025
RMK
T 27 26 23 22 Q 1013 1012 1014 1015
TAF3

YBAS 23/05/2022 UTC

TAF YBAS 232300Z 2400/2500
03010KT CAVOK
FM240300 VRB03KT CAVOK
FM240600 12008KT CAVOK
FM241500 VRB03KT CAVOK
RMK
T 19 24 26 22 Q 1020 1018 1016 1017

YBMA 23/05/2022 UTC

TAF YBMA 232228Z 2400/2412
11010KT CAVOK
FM240900 16007KT CAVOK
RMK
T 23 27 27 24 Q 1018 1016 1014 1015

YPAD 24/05/2022 UTC

TAF YPAD 240207Z 2403/2506
04015KT CAVOK
FM241800 03014KT 9999 -SHRA FEW050
FM250000 36016G26KT 9999 -SHRA SCT020 BKN030
INTER 2500/2506 36018G28KT 4000 SHRA SCT015 SCT020TCU
RMK
T 21 20 17 16 Q 1019 1018 1018 1018
TAF3

YPDN 24/05/2022 UTC

TAF YPDN 240206Z 2403/2506
09010KT 9999 FU HZ NSC
FM240600 35008KT 9999 FU HZ NSC
FM241200 24005KT CAVOK
FM242300 15005KT CAVOK
RMK
T 32 32 29 27 Q 1012 1010 1011 1013
TAF3

YPTN 23/05/2022 UTC

TAF YPTN 232300Z 2400/2500
11006KT CAVOK
RMK
T 26 32 33 29 Q 1014 1013 1011 1012

YPPH 24/05/2022 UTC

TAF YPPH 240224Z 2403/2506
25015G25KT 9999 -SHRA SCT030
FM240600 23008KT 9999 -SHRA SCT030
FM241200 13006KT 9999 NSW SCT025
FM241800 09006KT 9999 SCT030
RMK
T 20 20 19 16 Q 1013 1013 1014 1017
TAF3

YPLM 23/05/2022 UTC

TAF YPLM 232303Z 2400/2500
25008KT CAVOK
FM240400 09010KT CAVOK
FM240700 24010KT CAVOK
FM241100 23005KT CAVOK
RMK
T 18 23 25 25 Q 1017 1018 1016 1016

YCAR 24/05/2022 UTC

TAF YCAR 240257Z 2404/2412
19008KT 9999 SCT040
RMK
T 24 23 20 Q 1017 1016 1017

YPCC 23/05/2022 UTC

TAF YPCC 232303Z 2400/2500
13014KT 9999 BKN025
RMK
T 27 28 29 28 Q 1012 1013 1012 1012

YPPD 23/05/2022 UTC

TAF AMD YPPD 232256Z 2323/2500
19008KT 9999 FEW010 SCT030
FM240600 29010KT 9999 SCT030
FM241100 26005KT 9999 FEW030
FM241500 17008KT 9999 FEW030
INTER 2323/2409 3000 SHRA BKN008 SCT030TCU
RMK
T 23 28 29 29 Q 1013 1015 1013 1013

YBTL 24/05/2022 UTC

TAF YBTL 240300Z 2404/2500
14007KT 9999 FEW040
FM240900 VRB05KT 9999 FEW030
FM241700 18004KT 9999 SCT025
RMK
T 26 26 22 21 Q 1014 1013 1015 1016
TAF3 VALID TL 241200

YMHB 24/05/2022 UTC

TAF YMHB 240214Z 2403/2500
31006KT 9999 FEW020
FM240430 15005KT 9999 FEW025
FM240800 33005KT CAVOK
RMK
T 13 12 09 06 Q 1029 1028 1028 1029
TAF3

YPXM 23/05/2022 UTC

TAF AMD YPXM 232300Z 2400/2500
13008KT 9999 BKN010
FM240300 10012KT 9999 BKN012
TEMPO 2400/2500 2000 SHRA BKN004
PROB30 TEMPO 2400/2410 VRB20G35KT 1000 TSRA BKN004 SCT014CB
RMK
T 26 28 28 27 Q 1012 1013 1012 1012

New Zealand

The availability of aerodrome forecasts from overseas locations is dependent on the regular international exchange of data. Some locations may at times be absent. If this problem persists, please advise webav@bom.gov.au

 back to top

NZAA 23/05/2022 UTC

TAF NZAA 232302Z 2400/2500 23010KT 9999 SCT030

NZWN 23/05/2022 UTC

TAF NZWN 232302Z 2400/2500 35005KT 9999 FEW030
BECMG 2422/2500 20010KT

NZCH 24/05/2022 UTC

TAF AMD NZCH 240140Z 2401/2500 VRB02KT CAVOK
BECMG 2422/2500 22012KT

YLHI 23/05/2022 UTC

TAF AMD YLHI 232327Z 2400/2500
10013KT 9999 -SHRA SCT030
FM240300 10012KT 9999 -SHRA SCT020 BKN030
FM240600 09012KT 9999 -SHRA BKN025
INTER 2403/2418 4000 SHRA SCT018 BKN025
RMK
T 20 20 19 18 Q 1025 1023 1024 1024

YSNF 23/05/2022 UTC

TAF AMD YSNF 232330Z 2400/2500
13014KT 9999 -SHRA SCT020 BKN035
FM240800 13012KT 9999 NSW SCT025 BKN040
INTER 2400/2407 4000 SHRA SCT006 BKN018
RMK
T 20 20 18 18 Q 1021 1020 1021 1022

Indonesia, Malaysia, Myanmar, Singapore, Thailand, Vietnam

The availability of aerodrome forecasts from overseas locations is dependent on the regular international exchange of data. Some locations may at times be absent. If this problem persists, please advise webav@bom.gov.au

 back to top

WADA

TAF not available.

WAAA 23/05/2022 UTC

TAF WAAA 240000Z 2400/2506 11004KT 9999 SCT019 BECMG 2401/2403
29010KTTEMPO 2407/2409 6000 -TSRA FEW018CB BECMG 2411/2412 11004KT

WIII 23/05/2022 UTC

TAF WIII 232300Z 2400/2506 14005KT 9000 SCT020
TEMPO 2408/2412 05010G25KT 5000 -SHRA FEW018CB BKN020
BECMG 2418/2420 15005KT 4000 BR
BECMG 2500/2502 9000 NSW

WIHH 23/05/2022 UTC

TAF WIHH 232300Z 2400/2500 09010KT 7000 SCT022
TEMPO 2408/2411 4000 -RA FEW018CB
BECMG 2412/2414 15004KT 5000 HZ

WIMM 23/05/2022 UTC

TAF WIMM 232300Z 2400/2500 VRB04KT 4000 HZ SCT017
BECMG 2401/2403 03008KT 9999 NSW
TEMPO 2405/2408 5000 -TSRA FEW016CB
BECMG 2412/2414 VRB05KT 5000 HZ

WIPP 23/05/2022 UTC

TAF WIPP 232300Z 2400/2424 21008KT 9999 SCT010
TEMPO 2409/2412 3000 TSRA FEW010CB BKN011
TEMPO 2421/2424 3000 BR

WIKD

TAF not available.

WARR 23/05/2022 UTC

TAF AMD WARR 232300Z 2400/2500 07010KT 7000 SCT020
TEMPO 2400/2402 4000 TSRA SCT020CB
BECMG 2402/2404 08013KT 9999
PROB30 TEMPO 2411/2415 4000 -TSRA SCT020CB
BECMG 2415/2417 08008KT 5000 HZ

WADD 23/05/2022 UTC

TAF WADD 232300Z 2400/2500 11010KT 9999 SCT016

WRRA

TAF not available.

WALL 23/05/2022 UTC

TAF WALL 232300Z 2400/2506 01002KT 9000 FEW020 BECMG 2304/2306 12005KT 9999

WSSS 23/05/2022 UTC

TAF WSSS 232300Z 2400/2506 19007KT 9999 FEW015 SCT020
TEMPO 2407/2410 3000 TSRA FEW012CB BKN015

WSAP 23/05/2022 UTC

TAF WSAP 232300Z 2400/2506 19007KT 9999 FEW015 SCT020
TEMPO 2407/2410 3000 TSRA FEW012CB BKN015

WMKK 23/05/2022 UTC

TAF WMKK 232300Z 2400/2506 22006KT 9999 FEW018
PROB30 TEMPO 2408/2412 5000 TSRA FEW017CB SCT018

WMSA 23/05/2022 UTC

TAF WMSA 232300Z 2400/2500 25006KT 9999 FEW018
TEMPO 2408/2412 4000 TSRA FEW017CB SCT018

WMKP 23/05/2022 UTC

TAF WMKP 232300Z 2400/2500 VRB03KT 8000 FEW020
BECMG 2404/2406 22006KT 9999
BECMG 2410/2412 00000KT 8000 FEW025
TEMPO 2420/2500 5000 TSRA FEW010 FEW017CB

WMKJ 23/05/2022 UTC

TAF WMKJ 232300Z 2400/2500 12005KT 9999 FEW018
TEMPO 2406/2410 4000 TSRA FEW017CB SCT018

WMKD 23/05/2022 UTC

TAF WMKD 232300Z 2400/2500 VRB03KT 9999 FEW020

WMKB 23/05/2022 UTC

TAF WMKB 232300Z 2400/2500 07003KT 9000 FEW020
BECMG 2404/2406 31006KT

VTBD 23/05/2022 UTC

TAF VTBD 232300Z 2400/2506 21005KT 9000 FEW020 SCT080 TEMPO 2405/2409
25010G25KT 4000 SHRA FEW018CB SCT040

VTBS 23/05/2022 UTC

TAF VTBS 232300Z 2400/2506 21008KT 9000 FEW020 SCT080 TEMPO 2405/2409
25010G25KT 4000 SHRA FEW018CB SCT040

VTBU 23/05/2022 UTC

TAF VTBU 232300Z 2400/2424 22008KT 9999 FEW020

VTCC 23/05/2022 UTC

TAF VTCC 232300Z 2400/2506 30005KT 9999 SCT035 BECMG 2401/2403
19005KT TEMPO 2404/2412 26015G30KT 4000 TSRA FEW025CB BKN035
BECMG 2410/2412 25005KT BECMG 2416/2418 01005KT BECMG 2500/2502
18005KT

VTSP 23/05/2022 UTC

TAF VTSP 232300Z 2400/2506 26010KT 9999 FEW020

VTSS 23/05/2022 UTC

TAF VTSS 232300Z 2400/2424 24008KT 9999 FEW020

VVTS 23/05/2022 UTC

TAF VVTS 232300Z 2400/2506 24010KT 9999 SCT017 SCT040 TEMPO 2406/2412
24015G28KT 3000 TSRA SCT013 SCT015CB

VDPP 23/05/2022 UTC

TAF VDPP 232300Z 2400/2418 22010KT 9999 SCT017 TEMPO 2406/2411 5000
TSRA SCT015 FEW017CB SCT040

VVNB 24/05/2022 UTC

TAF COR VVNB 232300Z 2400/2424 34005KT 7000 SCT015 BKN035 TEMPO
2400/2406 4000 TSRA SCT010 FEW023CB BKN030

VYYY 23/05/2022 UTC

TAF VYYY 232300Z 2400/2424 23008KT 7000 BKN012 FEW018CB OVC090 TEMPO
2400/2406 22008G18KT 3000 TSRA TEMPO 2406/2412 3000 RA

South America

The availability of aerodrome forecasts from overseas locations is dependent on the regular international exchange of data. Some locations may at times be absent. If this problem persists, please advise webav@bom.gov.au

 back to top

SAEZ 23/05/2022 UTC

TAF SAEZ 232300Z 2400/2424 05005KT CAVOK TX20/2418Z TN12/2410Z
BECMG 2415/2417 18005KT 9999 BKN045
TEMPO 2419/2424 8000 -DZRA BKN025 OVC045

SAVC 23/05/2022 UTC

TAF SAVC 232300Z 2400/2424 29020G30KT CAVOK
TX08/2418Z TN03/2411Z PROB40 TEMPO 2408/2412 27020KT 9999 -RA BKN030 OVC050
BECMG 2413/2414 23020KT 9999 SCT030
BECMG 2418/2420 BKN030

SCIE 24/05/2022 UTC

TAF SCIE 232214Z 2400/2424 24004KT 9999 FEW015 BKN100 TX13/2418Z
TN08/2410Z BECMG 2400/2402 28004KT SCT030 BKN060 TEMPO
2401/2407 03006KT 6000 -SHRA BKN010 OVC025 BECMG 2416/2418
22008KT CAVOK

SACO 23/05/2022 UTC

TAF SACO 232300Z 2400/2424 36005KT CAVOK TX20/2418Z TN08/2410Z
PROB30
TEMPO 2408/2411 20005KT 5000 BR SCT012
BECMG 2412/2415 20015KT 9999 BKN020

SCIP 24/05/2022 UTC

TAF SCIP 232201Z 2400/2500 29015KT 9999 SCT025 SCT040
TN17/2410Z TX23/2319Z
TEMPO 2400/2406 23010KT 3000 -RA BKN010 OVC020
BECMG 2407/2409 23010KT

SAZM 23/05/2022 UTC

TAF SAZM 232300Z 2400/2424 14005KT 9999 BKN030 TX17/2318Z
TN07/2410Z
BECMG 2401/2403 7000 RA DZ BKN015 OVC045
TEMPO 2410/2415 20010KT 4000 +RA
BECMG 2417/2419 04005KT 9999 NSW SCT030

SAME 23/05/2022 UTC

TAF SAME 232300Z 2400/2424 23005KT CAVOK TX16/2420Z TN05/2410Z
PROB30
TEMPO 2411/2414 18005KT 6000 HZFU NSC
BECMG 2415/2417 14005KT 9999 NSW FEW040 SCT100

SUMU 24/05/2022 UTC

TAF AMD SUMU 240130Z 2402/2424 03005KT 9999 SCT030 BKN200 TX19/2418Z
TN12/2410Z
TEMPO 2402/2411 3000 BR NSC TEMPO 2402/2408 0800 FG NSC

SAZN 24/05/2022 UTC

TAF COR SAZN 232356Z 2400/2424 34015KT 9999 SCT025 OVC050
TX14/2419Z TN01/2410Z
TEMPO 2400/2402 7000 -RA BKN025 OVC040
BECMG 2401/2403 VRB03KT
BECMG 242412/2414 25020KT CAVOK

SCTE 23/05/2022 UTC

TAF SCTE 232255Z 2400/2424 34010KT 8000 SHRA BKN030 BKN040
TN03/2410Z TX09/2419Z
BECMG 2404/2406 9999 NSW BKN040
BECMG 2410/2412 5000 RA BKN020 OVC030
BECMG 2416/2418 29007KT 8000 SHRA BKN030
BECMG 2420/2422 VRB02KT

SCCI 23/05/2022 UTC

TAF SCCI 232218Z 2400/2500 27018KT 9000 -SHRASN -SHRA SCT030
TNM01/2411Z TX05/2418Z
TEMPO 2400/2409 4000 -SHSN SCT012 BKN020
BECMG 2404/2406 22015KT
BECMG 2409/2411 9999 NSW FEW030
TEMPO 2417/2500 25025KT

SAWG 23/05/2022 UTC

TAF SAWG 232300Z 2400/2424 27020KT 9999 SCT030 SCT090 TX06/2418Z
TN01/2411Z
BECMG 2404/2406 25020G30KT -SHRASN SCT020 SCT030 BKN060
BECMG 2412/2414 23020KT NSW FEW030

SAAR 23/05/2022 UTC

TAF SAAR 232300Z 2400/2424 07005KT CAVOK TX24/2418Z TN10/2410Z
BECMG 2415/2418 SCT020
BECMG 2421/2423 BKN020 OVC040

SAZS 24/05/2022 UTC

TAF SAZS 232300Z 2400/2424 30020KT 9999 BKN008 OVC015 TX02/2418Z
TNM01/2409Z
TEMPO 2400/2403 7000 RASN SCT005 OVC015
BECMG 2405/2407 30015G30KT 5000 SN BKN010 OVC040
TEMPO 2408/2412 2000 +SN
BECMG 2415/2417 29010KT 9999 NSW BKN030

SCEL 24/05/2022 UTC

TAF SCEL 232214Z 2400/2424 20006KT 9999 SCT100 BKN160 TX19/2418Z
TN10/2410Z BECMG 2402/2404 16004KT 8000 TEMPO 2409/2412
VRB02KT 4000 BR BECMG 2415/2417 19008KT CAVOK TEMPO
2419/2500 FEW120 BKN200

SAWH 23/05/2022 UTC

TAF SAWH 232300Z 2400/2424 20005KT 9999 -SHSN BKN015 TX03/2418Z
TNM02/2404Z PROB40
TEMPO 2406/2412 3000 SN SCT010 BKN015 OVC050
BECMG 2416/2418 29008KT NSW SCT030

Guam, Japan, Korea

The availability of aerodrome forecasts from overseas locations is dependent on the regular international exchange of data. Some locations may at times be absent. If this problem persists, please advise webav@bom.gov.au

 back to top

PGUA 24/05/2022 UTC

TAF PGUA 240200Z 2402/2508 11010G15KT 9999 SCT015 QNH2987INS
TEMPO 2402/2406 11010G20KT 4800 -SHRA BKN012
TEMPO 2414/2424 11010G20KT 4800 -SHRA BKN012 TX30/2402Z
TN25/2419Z

PGUM 23/05/2022 UTC

TAF PGUM 232337Z 2400/2506 09011KT P6SM VCSH SCT020 SCT120
TEMPO 2400/2404 10011G22KT

PGSN 23/05/2022 UTC

TAF PGSN 232337Z 2400/2424 09012KT P6SM VCSH SCT020 SCT120
TEMPO 2400/2404 10013G23KT

PTRO 23/05/2022 UTC

TAF PTRO 232337Z 2400/2424 07011KT P6SM VCSH SCT020 BKN120
TEMPO 2402/2406 -SHRA BKN020

RJOO

23/05/2022 UTC

TAF RJOO 232305Z 2400/2506 22006KT 9999 FEW030 BECMG 2407/2409
24007KT BECMG 2421/2500 22008KT

RJOB 23/05/2022 UTC

TAF RJOB 232305Z 2400/2506 14008KT 9999 FEW030

RJGG 23/05/2022 UTC

TAF RJGG 232306Z 2400/2506 36005KT 9999 FEW030 BECMG 2400/2402
14012KT

RJCC 23/05/2022 UTC

TAF RJCC 232305Z 2400/2506 34010KT 9999 FEW004 BKN006 BECMG
2401/2403 FEW008 BKN015 BECMG 2403/2405 17006KT BECMG
2500/2503 17016KT

RJSS 23/05/2022 UTC

TAF RJSS 232305Z 2400/2506 15012KT 9999 FEW030 BECMG 2412/2415
34004KT BECMG 2500/2503 12010KT

RJFK 23/05/2022 UTC

TAF RJFK 232309Z 2400/2506 12005KT 9999 FEW030 BECMG 2402/2404
18010KT BECMG 2410/2412 07005KT BECMG 2500/2503 13010KT

RJAA 23/05/2022 UTC

TAF RJAA 232305Z 2400/2506 16008KT 9999 FEW020 SCT030 TEMPO
2418/2421 3000 BR

RJBB 23/05/2022 UTC

TAF RJBB 232305Z 2400/2506 35004KT 9999 FEW025 BECMG 2403/2405
27008KT BECMG 2415/2418 05004KT BECMG 2500/2503 26006KT

RJTT 23/05/2022 UTC

TAF RJTT 232305Z 2400/2506 19016KT 9999 FEW030

RJFF 23/05/2022 UTC

TAF RJFF 232308Z 2400/2506 16004KT 9999 FEW030 BECMG 2400/2402
31011KT BECMG 2410/2412 14003KT BECMG 2500/2503 32011KT

RJFT 23/05/2022 UTC

TAF RJFT 232307Z 2400/2506 03004KT 9999 FEW040 BECMG 2400/2402
26007KT TEMPO 2406/2409 -TSRA FEW010 SCT020 BKN030 FEW030CB
BECMG 2412/2415 07004KT BECMG 2500/2503 24005KT

RJFU 23/05/2022 UTC

TAF RJFU 232307Z 2400/2506 29005KT 9999 FEW040 BECMG 2408/2410
14005KT BECMG 2500/2503 29005KT

ROAH 24/05/2022 UTC

TAF AMD ROAH 240031Z 2400/2506 25012KT 9999 FEW008 BKN015 TEMPO
2400/2403 FEW005 BKN008 BKN012 TEMPO 2412/2415 4000 SHRA
FEW005 BKN008 BKN012 TEMPO 2415/2421 FEW005 BKN008 BKN012

RKSS 23/05/2022 UTC

TAF RKSS 232300Z 2400/2506 27008G20KT 7000 NSC
TX29/2406Z TN14/2421Z TX27/2506Z
BECMG 2411/2412 20005KT
BECMG 2415/2417 4000 BR FEW010
TEMPO 2420/2422 2500
BECMG 2423/2424 6000 NSW NSC
BECMG 2501/2503 26008G20KT CAVOK

RKSI 23/05/2022 UTC

TAF RKSI 232300Z 2400/2506 20006KT CAVOK
TX24/2405Z TN15/2420Z TX23/2505Z
BECMG 2402/2404 26006KT
BECMG 2416/2418 34005KT 4000 BR FEW010
TEMPO 2420/2422 03005KT 2500
BECMG 2422/2423 20005KT
BECMG 2500/2501 27007KT 6000 NSW NSC

RKSM 23/05/2022 UTC

TAF RKSM 232300Z 2400/2506 24006KT 9999 BKN200 TX30/2406Z
TN14/2421Z

RKPK 23/05/2022 UTC

TAF RKPK 232300Z 2400/2506 33006KT 9999 SCT030 SCT200
TX31/2406Z TN18/2421Z
BECMG 2401/2402 20012KT
BECMG 2414/2415 20006KT
BECMG 2501/2502 20010KT

RKPC 23/05/2022 UTC

TAF RKPC 232300Z 2400/2506 01007KT CAVOK
TX23/2405Z TN16/2420Z TX24/2505Z
BECMG 2407/2408 31006KT
BECMG 2412/2413 21005KT
BECMG 2423/2424 01006KT
BECMG 2503/2504 30007KT

Indonesia, Pakistan, Singapore, India, Sri Lanka, United Arab Emirates

The availability of aerodrome forecasts from overseas locations is dependent on the regular international exchange of data. Some locations may at times be absent. If this problem persists, please advise webav@bom.gov.au

 back to top

WIII 23/05/2022 UTC

TAF WIII 232300Z 2400/2506 14005KT 9000 SCT020
TEMPO 2408/2412 05010G25KT 5000 -SHRA FEW018CB BKN020
BECMG 2418/2420 15005KT 4000 BR
BECMG 2500/2502 9000 NSW

WSSS 23/05/2022 UTC

TAF WSSS 232300Z 2400/2506 19007KT 9999 FEW015 SCT020
TEMPO 2407/2410 3000 TSRA FEW012CB BKN015

VCBI 23/05/2022 UTC

TAF VCBI 232300Z 2400/2506 22012KT 9999 SCT016 TX31/2407Z
TN27/2500Z PROB40
TEMPO 2400/2407 7000 -TSRA/SHRA BKN016 FEW020CB

VECC 23/05/2022 UTC

TAF VECC 232300Z 2400/2506 16005KT 2800 HZ SCT020 SCT100
TEMPO 2400/2404 28015G25KT 1400 TSRA SCT015 FEW025CB OVC090
BECMG 2404/2406 4000 HZ
TEMPO 2410/2414 31020G30KT 1500 TSRA SCT015 FEW025CB OVC090
BECMG 2423/2501 2600 HZ
BECMG 2503/2505 3500 HZ

VOMM 23/05/2022 UTC

TAF VOMM 232300Z 2400/2506 25005KT 5000 HZ FEW020 SCT100
BECMG 2403/2404 6000
BECMG 2409/2410 18010KT
BECMG 2421/2422 25005KT 5000 HZ
BECMG 2503/2504 6000

VOTV 23/05/2022 UTC

TAF VOTV 232300Z 2400/2506 VRB03KT 2500 -RA BR FEW008 SCT012 BKN080
BECMG 2403/2405 29010KT 6000 SCT015 SCT080 BECMG 2406/2407
29015G25KT BECMG 2414/2415 32010KT 4000 BR BECMG 2417/2418 3000 BR
SCT012 BKN080 TEMPO 2422/2502 2000 RA BR FEW008 SCT012 FEW025CB
BKN080 BECMG 2503/2505 29010KT 5000 HZ SCT015 SCT080

VABB 23/05/2022 UTC

TAF VABB 232300Z 2400/2506 24010KT 3500 HZ FEW020 SCT025
TEMPO 2400/2403 2500 -RA DZ
BECMG 2402/2404 24010G20KT 4000 HZ
TEMPO 2405/2413 25012G22KT
BECMG 2414/2416 22010KT 3500 HZ
BECMG 2419/2421 23008KT SCT018 SCT025
BECMG 2501/2503 24012KT 3000 -RA DZ

VAAH 23/05/2022 UTC

TAF VAAH 232300Z 2400/2506 23008KT 4000 DRDU SCT080
BECMG 2401/2403 25005KT 3000 SCT020
BECMG 2404/2406 5000 DRDU FU FEW020 SCT025
BECMG 2407/2409 23010G20KT
BECMG 2412/2414 18008KT4000 DRDU
BECMG 2418/2420 23006KT NSC
BECMG 2501/2503 24010G18KT 3000 DRDU SCT020
BECMG 2504/2506 23008KT 4000

VILK 23/05/2022 UTC

TAF VILK 232300Z 2400/2506 VRB02KT 3000 HZ BR SCT020 BKN100
TEMPO 2405/2409 12010G20KT 1500 -TSRA FEW030CB OVC090
BECMG 2510/2512 VRB02KT 3000 HZ
TEMPO 2420/2424 12010G20KT 1500 -TSRA FEW030CB OVC090
BECMG 2500/2502 VRB02KT 3000 BR HZ

VANP 23/05/2022 UTC

TAF VANP 232300Z 2400/2506 34009KT 2500 HZ -RA FEW020 FEW030TCU
SCT100
BECMG 2404/2406 27008KT 5000 HZ -RA SCT025 FEW030CB BKN100
TEMPO 2409/2415 32015G25KT 1500 TSRA SCT018 FEW030CB OVC080
BECMG 2412/2414 3500 HZ -RA SCT020 FEW030CB BKN090
BECMG 2418/2420 34007KT 3500 HZ FEW020 SCT100
BECMG 2500/2502 3000 HZ SCT020 SCT100
TEMPO 2503/2506 34015G25KT 1500 TSRA SCT018 FEW030CB OVC080

VRMM 23/05/2022 UTC

TAF VRMM 232300Z 2400/2506 25012KT 9999 FEW018TCU TEMPO 2402/2408
FEW018CB

VOHS 23/05/2022 UTC

TAF VOHS 232300Z 2400/2506 27010G20KT 6000 FEW015 BECMG 2416/2418
28006KT 5000 HZ FEW015 SCT100 BECMG 2504/2506 26010G20KT 6000
FEW015

OPKC 23/05/2022 UTC

TAF OPKC 232130Z 2400/2506 23010G20KT 4000 BLDU NSC TEMPO 2400/2404
26005G15KT 4000 HZ NSC BECMG 2410/2412 27005G15KT 4000 BLDU FEW030
FM241900 26007G17KT 4000 FU FEW020 TEMPO 2500/2504 27005G15KT 4000
HZ SCT020

OBBI 23/05/2022 UTC

TAF OBBI 232300Z 2400/2506 34020KT 3000 DU NSC TEMPO 2400/2404 0600
VV/// BECMG 2412/2414 5000

OMAA 23/05/2022 UTC

TAF OMAA 232300Z 2400/2506 VRB02KT 8000 NSC
PROB30 2401/2404 4000 HZ
BECMG 2407/2409 32015KT 4000 DU
PROB40 TEMPO 2410/2506 1500
BECMG 2418/2420 24006KT

OMDB 23/05/2022 UTC

TAF OMDB 232300Z 2400/2506 09005KT 8000 NSC
PROB30 2401/2404 4000 HZ
BECMG 2403/2405 16010KT
BECMG 2407/2409 30013KT
PROB30 2410/2506 3000 DU
BECMG 2416/2418 19005KT

OOMS 23/05/2022 UTC

TAF OOMS 232300Z 2400/2506 VRB02KT 8000 NSC BECMG 2406/2408 04012KT
BECMG 2415/2417 VRB02KT BECMG 2418/2420 20012KT

OMSJ 23/05/2022 UTC

TAF OMSJ 232300Z 2400/2506 09005KT 8000 NSC
PROB30 2400/2404 4000 HZ
BECMG 2403/2405 16010KT
BECMG 2407/2409 30013KT
PROB30 2411/2506 3000 DU
BECMG 2415/2417 18005KT

Malawi, Mauritius, South Africa, Zambia, Zimbabwe

The availability of aerodrome forecasts from overseas locations is dependent on the regular international exchange of data. Some locations may at times be absent. If this problem persists, please advise webav@bom.gov.au

 back to top

FIMP 24/05/2022 UTC

TAF COR FIMP 232310Z 2400/2506 11013G23KT 9999 SCT017
TEMPO 2421/2506 7000 -SHRA FEW010 BKN015

FMEE 23/05/2022 UTC

TAF FMEE 232300Z 2400/2506 13015KT 9999 FEW025 TEMPO 2406/2412
12015G25KT

FLKK 23/05/2022 UTC

TAF FLKK 231600Z 2318/2424 18005KT CAVOK
BECMG 2406/2408 15005KT
BECMG 2410/2414 FEW040
BECMG 2415/12518 18005KT CAVOK

FWKI 23/05/2022 UTC

TAF FWKI 231500Z 2318/2424 24008KT 9999 FEW030 SCT090 BECMG 2406/2408
VRB02KT 9999 FEW015 BECMG 2409/2411 SCT020 BECMG 2412/2414 BKN028
BECMG 2414/2416 16004KT SCT035 FM241600 16004KT CAVOK

FAOR 23/05/2022 UTC

TAF FAOR 232200Z 2400/2506 21008KT CAVOK
TX18/2412Z TN07/2403Z
PROB30 TEMPO 2402/2406 4000 BR BKN005

FVHA

TAF not available.

FAWK 24/05/2022 UTC

TAF FAWK 240300Z 2404/2415 VRB03KT CAVOK
TX20/2412Z TN06/2404Z

FABL 23/05/2022 UTC

TAF FABL 232200Z 2400/2424 VRB03KT CAVOK
TX22/2412Z TN05/2404Z

FALE 23/05/2022 UTC

TAF FALE 232200Z 2400/2506 VRB03KT CAVOK
TX25/2412Z TN12/2404Z
BECMG 2409/2411 04012KT
BECMG 2417/2419 VRB03KT
BECMG 2420/2422 21012KT

YPCC 23/05/2022 UTC

TAF YPCC 232303Z 2400/2500
13014KT 9999 BKN025
RMK
T 27 28 29 28 Q 1012 1013 1012 1012

United States (includes Hawaii) and Mexican emergency/alternates

The availability of aerodrome forecasts from overseas locations is dependent on the regular international exchange of data. Some locations may at times be absent. If this problem persists, please advise webav@bom.gov.au

 back to top

PHNL 23/05/2022 UTC

TAF PHNL 232342Z 2400/2506 05010G18KT P6SM FEW025 SCT050
FM240400 06011KT P6SM FEW025 BKN050
FM240900 05007KT P6SM FEW025 FEW040
FM242000 06011KT P6SM FEW025 SCT045

PHLI 23/05/2022 UTC

TAF PHLI 232342Z 2400/2424 07011KT P6SM FEW040
FM240900 07008KT P6SM SCT040
FM242000 06010KT P6SM FEW040

PHOG 23/05/2022 UTC

TAF PHOG 232342Z 2400/2424 05018G26KT P6SM FEW030 BKN060
FM240600 07011G18KT P6SM SCT025 SCT040
FM241200 VRB06KT P6SM FEW040
FM242100 04014G22KT P6SM FEW030 SCT050

PHTO 23/05/2022 UTC

TAF PHTO 232342Z 2400/2424 11012KT P6SM VCSH SCT025 SCT035 BKN060
FM240400 VRB06KT P6SM VCSH SCT025 BKN050
FM240900 23005KT P6SM VCSH SCT025 BKN045
FM242000 07010KT P6SM FEW025 BKN050

PKMJ 23/05/2022 UTC

TAF PKMJ 232337Z 2400/2424 08011KT P6SM VCSH FEW015 SCT050

KLAX 24/05/2022 UTC

TAF KLAX 240301Z 2403/2506 VRB03KT P6SM OVC010
FM241900 25010KT P6SM SCT016
FM250100 25008KT P6SM BKN012

KONT 23/05/2022 UTC

TAF KONT 232340Z 2400/2506 26011KT P6SM SKC
FM240500 VRB05KT P6SM SKC
FM242000 25012KT P6SM FEW250
FM250500 VRB04KT P6SM SCT250

KPMD 23/05/2022 UTC

TAF KPMD 232337Z 2400/2424 29018KT P6SM SKC
FM240400 23012KT P6SM SKC
FM240800 VRB03KT P6SM SKC
FM241800 06010KT P6SM SKC

KSAN 24/05/2022 UTC

TAF KSAN 240247Z 2403/2506 19006KT P6SM BKN015
FM240600 VRB04KT P6SM OVC012
FM241600 21004KT P6SM BKN012
FM242000 22009KT P6SM SCT017
FM250100 VRB04KT P6SM BKN012

KLAS 24/05/2022 UTC

TAF AMD KLAS 240255Z 2403/2506 08005KT P6SM SCT250
FM240400 VRB05KT P6SM FEW250
FM241800 09005KT P6SM SKC
FM250300 23005KT P6SM SKC

KOAK 23/05/2022 UTC

TAF KOAK 232340Z 2400/2506 28014KT P6SM FEW200
FM240300 28009KT P6SM SKC
FM240600 31004KT P6SM SKC
FM241300 VRB03KT P6SM SKC WS020/02025KT
FM241700 29005KT P6SM SKC
FM242000 28012KT P6SM SKC
FM250300 30006KT P6SM SKC

KSFO 23/05/2022 UTC

TAF KSFO 232340Z 2400/2506 29023KT P6SM FEW200
FM240300 29018KT P6SM SKC
FM240600 29012KT P6SM SKC
FM241300 29005KT P6SM SKC WS020/02025KT
FM241700 34006KT P6SM SKC
FM242000 31014KT P6SM SKC
FM242300 28018G26KT P6SM SKC
FM250300 30013KT P6SM SKC

KSMF 23/05/2022 UTC

TAF KSMF 232324Z 2400/2424 31009KT P6SM FEW250
FM240500 23007KT P6SM FEW250
FM241000 34009KT P6SM FEW250
FM241800 33010G18KT P6SM FEW250

KSCK 23/05/2022 UTC

TAF KSCK 232324Z 2400/2424 29012G18KT P6SM FEW250
FM240300 28011KT P6SM FEW250
FM241700 32012G18KT P6SM FEW250

KFAT 23/05/2022 UTC

TAF KFAT 232320Z 2400/2424 32009KT P6SM FEW130 BKN200
FM240800 VRB04KT P6SM SKC

KJFK 24/05/2022 UTC

TAF KJFK 240242Z 2403/2506 12004KT P6SM BKN150
FM240600 05005KT P6SM BKN100
FM241400 08009KT P6SM BKN100
FM241700 14011KT P6SM BKN100
FM242300 14008KT P6SM SCT250
FM250300 10006KT P6SM SCT250

KPHL 24/05/2022 UTC

TAF KPHL 240259Z 2403/2506 VRB04KT P6SM -RA OVC090
FM241000 08008KT P6SM OVC050
FM242000 10008KT P6SM BKN080
FM250200 07006KT P6SM SCT080

KPIT 24/05/2022 UTC

TAF KPIT 240257Z 2403/2506 05004KT P6SM OVC090
FM241300 12008KT P6SM BKN035
FM242000 11007KT P6SM BKN025
FM250000 12008KT P6SM BKN050

KDEN 23/05/2022 UTC

TAF KDEN 232327Z 2400/2506 03013G20KT P6SM SCT050 BKN070 BKN200
FM240200 05010KT P6SM VCSH SCT040 BKN060
FM240700 35007KT P6SM BKN020 BKN050
FM241200 01007KT P6SM VCSH BKN010 OVC020
FM241800 04007KT P6SM SCT012 BKN022 BKN040
FM242100 05010KT P6SM SCT024 BKN045
FM250000 05007KT P6SM VCSH SCT030 BKN050
FM250300 14007KT P6SM SCT030 BKN060

KMCI 23/05/2022 UTC

TAF KMCI 232329Z 2400/2424 11010KT P6SM SCT090
FM240800 09007KT 6SM -SHRA BR OVC045
FM241100 08010G18KT 6SM -SHRA BR OVC028
FM242000 09012G18KT 5SM -RA BR OVC015

KDFW 24/05/2022 UTC

TAF KDFW 240114Z 2401/2506 11010KT P6SM VCSH BKN035
TEMPO 2402/2405 -SHRA
FM240500 11012KT P6SM VCSH BKN025
TEMPO 2408/2412 5SM -TSRA BKN015CB
FM241500 14010KT P6SM OVC010
FM241800 16012KT P6SM OVC020
FM250100 17016KT P6SM VCTS BKN035CB
TEMPO 2502/2505 31015G25KT 2SM +TSRA BKN020CB
FM250500 31015KT 6SM -RA BKN025

KAUS 24/05/2022 UTC

TAF AMD KAUS 240242Z 2403/2506 11007KT P6SM VCSH FEW050 SCT090 OVC200
FM240500 16010KT P6SM BKN018 OVC050
TEMPO 2408/2412 VRB25KT 2SM +TSRA BR SCT008 OVC028CB
FM241500 15008KT P6SM BKN022
FM241800 16014KT P6SM SCT045 SCT100
FM250400 16012KT P6SM BKN018

KELP 23/05/2022 UTC

TAF KELP 232328Z 2400/2424 25013G23KT P6SM FEW250
FM240200 27020G30KT P6SM SKC
FM240900 29010G20KT P6SM FEW250
FM241700 26020G30KT P6SM FEW250

KIAH 24/05/2022 UTC

TAF KIAH 240300Z 2403/2506 06006KT P6SM FEW025 SCT250
FM240900 11007KT P6SM VCTS BKN025CB
FM241200 16007KT 6SM BR VCTS SCT018 BKN025CB
FM241600 20012KT 6SM BR VCTS BKN028CB
FM241900 19011KT P6SM OVC035
FM242300 16013KT P6SM BKN035

KSAT 24/05/2022 UTC

TAF KSAT 240259Z 2403/2506 10011KT P6SM FEW027 SCT100 OVC200
FM240500 13010KT P6SM OVC012
TEMPO 2408/2412 VRB30KT 2SM +TSRA BR SCT007 BKN022CB OVC250
FM241400 15009KT P6SM BKN022
FM241800 14013KT P6SM BKN045
FM250400 14012KT P6SM BKN012

KTUS 23/05/2022 UTC

TAF KTUS 232320Z 2400/2424 27011G21KT P6SM FEW250
FM240400 21007KT P6SM FEW250
FM240900 15007KT P6SM FEW250
FM242000 31012G22KT P6SM FEW250

MMCU 23/05/2022 UTC

TAF MMCU 231730Z 2318/2418 23015KT P6SM SCT030
TEMPO 2321/2401 5SM TSRA BKN030CB
FM240300 24010KT P6SM SCT200
FM241200 00000KT P6SM SKC

MMHO 23/05/2022 UTC

TAF MMHO 231631Z 2318/2418 18010KT P6SM SKC
FM232100 24015KT P6SM SKC
FM240300 00000KT P6SM SKC

MMLT 23/05/2022 UTC

TAF MMLT 231629Z 2318/2418 16010KT P6SM SKC
TEMPO 2320/2324 16014KT
FM240300 23005KT P6SM SKC
FM241600 13006KT P6SM SKC

MMSD 23/05/2022 UTC

TAF MMSD 231629Z 2318/2418 13015KT P6SM SKC
FM240300 30006KT P6SM SKC
FM241700 13010KT P6SM SKC

Papua New Guinea, Southwest Pacific

The availability of aerodrome forecasts from overseas locations is dependent on the regular international exchange of data. Some locations may at times be absent. If this problem persists, please advise webav@bom.gov.au

 back to top

NWWW 23/05/2022 UTC

TAF NWWW 232300Z 2400/2424 14010KT 9999 BKN020 BECMG 2406/2408
VRB02KT PROB30 TEMPO 2422/2424 SHRA FEW020TCU

NFFN 23/05/2022 UTC

TAF NFFN 232306Z 2400/2424
29010KT 9999 FEW028
PROB40 TEMPO 2402/2406 5000 TSRA BKN015 FEW017CB
BECMG 2404/2406 08005KT
BECMG 2422/2424 30010KT

NFNA 23/05/2022 UTC

TAF NFNA 232307Z 2400/2424
06007KT 9999 BKN018 BKN040
PROB40 TEMPO 2400/2408 5000 TSRA BKN015 FEW017CB
PROB40 TEMPO 2419/2424 5000 SHRA BKN015

NFTF 23/05/2022 UTC

TAF NFTF 232306Z 2400/2424
07007KT 9999 FEW015 SCT030

NSTU 23/05/2022 UTC

TAF NSTU 232342Z 2400/2424 10018KT P6SM VCSH FEW020 SCT040 BKN100
FM241200 10013KT P6SM VCSH SCT025 BKN040 BKN090

NVVV 23/05/2022 UTC

TAF NVVV 232300Z 2400/2424 13006KT 9999 SCT022 BKN130

NCRG 23/05/2022 UTC

TAF NCRG 232306Z 2400/2424
05007KT 9999 SCT020

NTAA 23/05/2022 UTC

TAF NTAA 232300Z 2400/2506 VRB05KT 9999 FEW025

NTTG

TAF not available.

NTTO

TAF not available.

NSFA 23/05/2022 UTC

TAF NSFA 232307Z 2400/2424
07008KT 9999 SCT022

ANYN

TAF not available.

AGGH 23/05/2022 UTC

TAF AGGH 232321Z 2400/2424 05010KT 9999 SCT018
T 31 32 31 28 Q 1012 1010 1009 1011

AGGM 23/05/2022 UTC

TAF AGGM 232310Z 2400/2424 09010KT 9999 SCT018

Q 1012 1010 1009 1011

AGGN 23/05/2022 UTC

TAF AGGN 232310Z 2400/2424 09010KT 9999 SCT018

Q 1012 1010 1009 1011

AYPY 24/05/2022 UTC

TAF AYPY 232000Z 2400/2424 12007KT 9999 SCT020
FM240300 22008KT 9999 -SHRA SCT018 FEW018CB
FM240800 16009KT 9999 -DZ SCT018 SCT040

AYNZ

TAF not available.

AYMD

TAF not available.

AYMH

TAF not available.

AYTA

TAF not available.

PKMJ 23/05/2022 UTC

TAF PKMJ 232337Z 2400/2424 08011KT P6SM VCSH FEW015 SCT050

NGTA 23/05/2022 UTC

TAF NGTA 232307Z 2400/2424
10009KT 9999 SCT018

PTRO 23/05/2022 UTC

TAF PTRO 232337Z 2400/2424 07011KT P6SM VCSH SCT020 BKN120
TEMPO 2402/2406 -SHRA BKN020

YLHI 23/05/2022 UTC

TAF AMD YLHI 232327Z 2400/2500
10013KT 9999 -SHRA SCT030
FM240300 10012KT 9999 -SHRA SCT020 BKN030
FM240600 09012KT 9999 -SHRA BKN025
INTER 2403/2418 4000 SHRA SCT018 BKN025
RMK
T 20 20 19 18 Q 1025 1023 1024 1024

YSNF 23/05/2022 UTC

TAF AMD YSNF 232330Z 2400/2500
13014KT 9999 -SHRA SCT020 BKN035
FM240800 13012KT 9999 NSW SCT025 BKN040
INTER 2400/2407 4000 SHRA SCT006 BKN018
RMK
T 20 20 18 18 Q 1021 1020 1021 1022

Indonesia, Timor Leste, Papua New Guinea

The availability of aerodrome forecasts from overseas locations is dependent on the regular international exchange of data. Some locations may at times be absent. If this problem persists, please advise webav@bom.gov.au

 back to top

WAAA 23/05/2022 UTC

TAF WAAA 240000Z 2400/2506 11004KT 9999 SCT019 BECMG 2401/2403
29010KTTEMPO 2407/2409 6000 -TSRA FEW018CB BECMG 2411/2412 11004KT

WAMM 23/05/2022 UTC

TAF WAMM 232300Z 2400/2506 32008KT 9999 SCT020
TEMPO 2400/2404 6000 RA
PROB40 TEMPO 2405/2409 3000 TSRA FEW017CB
BECMG 2410/2312 VRB03KT

WAMP

TAF not available.

WAJJ 23/05/2022 UTC

TAF WAJJ 232300Z 2400/2424 12007KT 9999 FEW013

WAPP 23/05/2022 UTC

TAF WAPP 232300Z 2400/2424 16008KT 9999 SCT017
TEMPO 2406/2409 4000 RA BKN015

WABB 23/05/2022 UTC

TAF WABB 232300Z 2400/2506 07006KT 7000 RA FEW017CB BKN018
BECMG 2405/2407 12005KT

WPDL 23/05/2022 UTC

TAF AMD WPDL 232325Z 2323/2412
15005KT CAVOK
FM240100 30008KT CAVOK
FM240500 03012KT CAVOK
INTER 2408/2412 3000 SHRA BKN012
RMK
T 26 29 29 27 Q 1012 1011 1009 1010

WATT 23/05/2022 UTC

TAF WATT 232300Z 2400/2424 11014KT 9999 SCT018
PROB40 TEMPO 2407/2411 7000 -RA BKN017

WIII 23/05/2022 UTC

TAF WIII 232300Z 2400/2506 14005KT 9000 SCT020
TEMPO 2408/2412 05010G25KT 5000 -SHRA FEW018CB BKN020
BECMG 2418/2420 15005KT 4000 BR
BECMG 2500/2502 9000 NSW

WIHH 23/05/2022 UTC

TAF WIHH 232300Z 2400/2500 09010KT 7000 SCT022
TEMPO 2408/2411 4000 -RA FEW018CB
BECMG 2412/2414 15004KT 5000 HZ

WIMM 23/05/2022 UTC

TAF WIMM 232300Z 2400/2500 VRB04KT 4000 HZ SCT017
BECMG 2401/2403 03008KT 9999 NSW
TEMPO 2405/2408 5000 -TSRA FEW016CB
BECMG 2412/2414 VRB05KT 5000 HZ

WARR 23/05/2022 UTC

TAF AMD WARR 232300Z 2400/2500 07010KT 7000 SCT020
TEMPO 2400/2402 4000 TSRA SCT020CB
BECMG 2402/2404 08013KT 9999
PROB30 TEMPO 2411/2415 4000 -TSRA SCT020CB
BECMG 2415/2417 08008KT 5000 HZ

WADD 23/05/2022 UTC

TAF WADD 232300Z 2400/2500 11010KT 9999 SCT016

AYPY 24/05/2022 UTC

TAF AYPY 232000Z 2400/2424 12007KT 9999 SCT020
FM240300 22008KT 9999 -SHRA SCT018 FEW018CB
FM240800 16009KT 9999 -DZ SCT018 SCT040

AYNZ

TAF not available.

AYMH

TAF not available.

AYMD

TAF not available.

AYHK

TAF not available.

AYTK

TAF not available.

AYVN

TAF not available.

AYWK

TAF not available.

AYGA

TAF not available.

AYDU

TAF not available.

AYMS

TAF not available.

AYRB

TAF not available.

AYTB

TAF not available.

AYKI

TAF not available.

AYKT

TAF not available.

AYBK

TAF not available.

AYKM

TAF not available.

AYKY

TAF not available.

AYMO

TAF not available.

AYKV

TAF not available.

Accessing this Service

By entering this site, you acknowledge that this information is produced solely for use by the aviation industry, and you are aware that any information for the purposes of flight planning should be obtained from Airservices Australia.